sensor_id;sensor_type;location;lat;lon;timestamp;temperature;humidity
17174;DHT22;8702;48.130;-1.696;2022-08-03T00:01:41;24.20;96.60
17174;DHT22;8702;48.130;-1.696;2022-08-03T00:04:09;24.20;96.70
17174;DHT22;8702;48.130;-1.696;2022-08-03T00:06:37;24.20;96.70
17174;DHT22;8702;48.130;-1.696;2022-08-03T00:09:05;24.10;96.70
17174;DHT22;8702;48.130;-1.696;2022-08-03T00:11:32;24.00;96.80
17174;DHT22;8702;48.130;-1.696;2022-08-03T00:13:59;24.10;96.90
17174;DHT22;8702;48.130;-1.696;2022-08-03T00:16:27;24.10;96.80
17174;DHT22;8702;48.130;-1.696;2022-08-03T00:18:54;24.00;96.80
17174;DHT22;8702;48.130;-1.696;2022-08-03T00:21:21;24.00;96.90
17174;DHT22;8702;48.130;-1.696;2022-08-03T00:23:48;24.00;97.10
17174;DHT22;8702;48.130;-1.696;2022-08-03T00:26:15;24.00;97.10
17174;DHT22;8702;48.130;-1.696;2022-08-03T00:28:42;24.00;97.10
17174;DHT22;8702;48.130;-1.696;2022-08-03T00:31:09;24.00;97.10
17174;DHT22;8702;48.130;-1.696;2022-08-03T00:33:38;23.90;97.00
17174;DHT22;8702;48.130;-1.696;2022-08-03T00:36:05;23.70;97.40
17174;DHT22;8702;48.130;-1.696;2022-08-03T00:38:32;23.80;97.40
17174;DHT22;8702;48.130;-1.696;2022-08-03T00:40:59;23.80;97.70
17174;DHT22;8702;48.130;-1.696;2022-08-03T00:43:26;23.70;97.50
17174;DHT22;8702;48.130;-1.696;2022-08-03T00:45:53;23.70;97.70
17174;DHT22;8702;48.130;-1.696;2022-08-03T00:48:20;23.60;97.70
17174;DHT22;8702;48.130;-1.696;2022-08-03T00:50:48;23.50;97.90
17174;DHT22;8702;48.130;-1.696;2022-08-03T00:53:16;23.50;97.90
17174;DHT22;8702;48.130;-1.696;2022-08-03T00:55:43;23.50;98.00
17174;DHT22;8702;48.130;-1.696;2022-08-03T00:58:11;23.40;98.10
17174;DHT22;8702;48.130;-1.696;2022-08-03T01:00:39;23.40;98.10
17174;DHT22;8702;48.130;-1.696;2022-08-03T01:03:08;23.40;98.20
17174;DHT22;8702;48.130;-1.696;2022-08-03T01:05:41;23.30;98.30
17174;DHT22;8702;48.130;-1.696;2022-08-03T01:08:17;23.30;98.30
17174;DHT22;8702;48.130;-1.696;2022-08-03T01:10:53;23.30;98.50
17174;DHT22;8702;48.130;-1.696;2022-08-03T01:13:26;23.10;98.60
17174;DHT22;8702;48.130;-1.696;2022-08-03T01:15:59;23.00;98.90
17174;DHT22;8702;48.130;-1.696;2022-08-03T01:18:37;23.00;99.00
17174;DHT22;8702;48.130;-1.696;2022-08-03T01:21:10;22.90;99.30
17174;DHT22;8702;48.130;-1.696;2022-08-03T01:23:52;22.80;99.20
17174;DHT22;8702;48.130;-1.696;2022-08-03T01:29:38;22.90;99.30
17174;DHT22;8702;48.130;-1.696;2022-08-03T01:32:10;22.80;99.30
17174;DHT22;8702;48.130;-1.696;2022-08-03T01:34:42;22.70;99.80
17174;DHT22;8702;48.130;-1.696;2022-08-03T01:37:10;22.60;99.90
17174;DHT22;8702;48.130;-1.696;2022-08-03T01:39:38;22.50;99.90
17174;DHT22;8702;48.130;-1.696;2022-08-03T01:42:10;22.40;99.90
17174;DHT22;8702;48.130;-1.696;2022-08-03T01:44:40;22.20;99.90
17174;DHT22;8702;48.130;-1.696;2022-08-03T01:47:09;22.10;99.90
17174;DHT22;8702;48.130;-1.696;2022-08-03T01:49:39;22.10;99.90
17174;DHT22;8702;48.130;-1.696;2022-08-03T01:52:10;22.10;99.90
17174;DHT22;8702;48.130;-1.696;2022-08-03T01:54:42;22.00;99.90
17174;DHT22;8702;48.130;-1.696;2022-08-03T01:57:10;22.00;99.90
17174;DHT22;8702;48.130;-1.696;2022-08-03T01:59:39;22.00;99.90
17174;DHT22;8702;48.130;-1.696;2022-08-03T02:02:08;21.90;99.90
17174;DHT22;8702;48.130;-1.696;2022-08-03T02:04:38;21.80;99.90
17174;DHT22;8702;48.130;-1.696;2022-08-03T02:07:07;21.80;99.90
17174;DHT22;8702;48.130;-1.696;2022-08-03T02:09:38;21.70;99.90
17174;DHT22;8702;48.130;-1.696;2022-08-03T02:12:07;21.70;99.90
17174;DHT22;8702;48.130;-1.696;2022-08-03T02:14:36;21.70;99.90
17174;DHT22;8702;48.130;-1.696;2022-08-03T02:17:05;21.60;99.90
17174;DHT22;8702;48.130;-1.696;2022-08-03T02:19:33;21.60;99.90
17174;DHT22;8702;48.130;-1.696;2022-08-03T02:22:01;21.50;99.90
17174;DHT22;8702;48.130;-1.696;2022-08-03T02:24:30;21.40;99.90
17174;DHT22;8702;48.130;-1.696;2022-08-03T02:26:58;21.30;99.90
17174;DHT22;8702;48.130;-1.696;2022-08-03T02:29:29;21.30;99.90
17174;DHT22;8702;48.130;-1.696;2022-08-03T02:32:00;21.30;99.90
17174;DHT22;8702;48.130;-1.696;2022-08-03T02:34:33;21.40;99.90
17174;DHT22;8702;48.130;-1.696;2022-08-03T02:37:01;21.50;99.90
17174;DHT22;8702;48.130;-1.696;2022-08-03T02:39:30;21.60;99.90
17174;DHT22;8702;48.130;-1.696;2022-08-03T02:41:59;21.60;99.90
17174;DHT22;8702;48.130;-1.696;2022-08-03T02:44:29;21.50;99.90
17174;DHT22;8702;48.130;-1.696;2022-08-03T02:47:01;21.50;99.90
17174;DHT22;8702;48.130;-1.696;2022-08-03T02:49:30;21.40;99.90
17174;DHT22;8702;48.130;-1.696;2022-08-03T02:51:59;21.40;99.90
17174;DHT22;8702;48.130;-1.696;2022-08-03T02:54:27;21.40;99.90
17174;DHT22;8702;48.130;-1.696;2022-08-03T02:56:56;21.40;99.90
17174;DHT22;8702;48.130;-1.696;2022-08-03T02:59:24;21.30;99.90
17174;DHT22;8702;48.130;-1.696;2022-08-03T03:01:52;21.30;99.90
17174;DHT22;8702;48.130;-1.696;2022-08-03T03:04:20;21.30;99.90
17174;DHT22;8702;48.130;-1.696;2022-08-03T03:06:49;21.30;99.90
17174;DHT22;8702;48.130;-1.696;2022-08-03T03:09:17;21.30;99.90
17174;DHT22;8702;48.130;-1.696;2022-08-03T03:11:45;21.20;99.90
17174;DHT22;8702;48.130;-1.696;2022-08-03T03:14:14;21.20;99.90
17174;DHT22;8702;48.130;-1.696;2022-08-03T03:16:43;21.20;99.90
17174;DHT22;8702;48.130;-1.696;2022-08-03T03:19:12;21.20;99.90
17174;DHT22;8702;48.130;-1.696;2022-08-03T03:21:39;21.30;99.90
17174;DHT22;8702;48.130;-1.696;2022-08-03T03:24:10;21.30;99.90
17174;DHT22;8702;48.130;-1.696;2022-08-03T03:26:37;21.30;99.90
17174;DHT22;8702;48.130;-1.696;2022-08-03T03:29:06;21.30;99.90
17174;DHT22;8702;48.130;-1.696;2022-08-03T03:31:34;21.30;99.90
17174;DHT22;8702;48.130;-1.696;2022-08-03T03:34:02;21.20;99.90
17174;DHT22;8702;48.130;-1.696;2022-08-03T03:36:29;21.20;99.90
17174;DHT22;8702;48.130;-1.696;2022-08-03T03:38:56;21.20;99.90
17174;DHT22;8702;48.130;-1.696;2022-08-03T03:41:25;21.30;99.90
17174;DHT22;8702;48.130;-1.696;2022-08-03T03:43:52;21.20;99.90
17174;DHT22;8702;48.130;-1.696;2022-08-03T03:46:19;21.20;99.90
17174;DHT22;8702;48.130;-1.696;2022-08-03T03:48:46;21.30;99.90
17174;DHT22;8702;48.130;-1.696;2022-08-03T03:51:14;21.20;99.90
17174;DHT22;8702;48.130;-1.696;2022-08-03T03:53:54;21.10;99.90
17174;DHT22;8702;48.130;-1.696;2022-08-03T03:56:21;21.20;99.90
17174;DHT22;8702;48.130;-1.696;2022-08-03T03:58:50;21.20;99.90
17174;DHT22;8702;48.130;-1.696;2022-08-03T04:01:17;21.20;99.90
17174;DHT22;8702;48.130;-1.696;2022-08-03T04:03:44;21.10;99.90
17174;DHT22;8702;48.130;-1.696;2022-08-03T04:06:12;21.10;99.90
17174;DHT22;8702;48.130;-1.696;2022-08-03T04:08:56;21.10;99.90
17174;DHT22;8702;48.130;-1.696;2022-08-03T04:11:52;21.20;99.90
17174;DHT22;8702;48.130;-1.696;2022-08-03T04:14:24;21.30;99.90
17174;DHT22;8702;48.130;-1.696;2022-08-03T04:16:56;21.30;99.90
17174;DHT22;8702;48.130;-1.696;2022-08-03T04:19:27;21.30;99.90
17174;DHT22;8702;48.130;-1.696;2022-08-03T04:21:59;21.30;99.90
17174;DHT22;8702;48.130;-1.696;2022-08-03T04:24:29;21.30;99.90
17174;DHT22;8702;48.130;-1.696;2022-08-03T04:27:00;21.30;99.90
17174;DHT22;8702;48.130;-1.696;2022-08-03T04:29:30;21.20;99.90
17174;DHT22;8702;48.130;-1.696;2022-08-03T04:31:59;21.20;99.90
17174;DHT22;8702;48.130;-1.696;2022-08-03T04:34:27;21.20;99.90
17174;DHT22;8702;48.130;-1.696;2022-08-03T04:36:58;21.20;99.90
17174;DHT22;8702;48.130;-1.696;2022-08-03T04:39:27;21.20;99.90
17174;DHT22;8702;48.130;-1.696;2022-08-03T04:41:58;21.30;99.90
17174;DHT22;8702;48.130;-1.696;2022-08-03T04:44:26;21.30;99.90
17174;DHT22;8702;48.130;-1.696;2022-08-03T04:46:56;21.20;99.90
17174;DHT22;8702;48.130;-1.696;2022-08-03T04:49:23;21.10;99.90
17174;DHT22;8702;48.130;-1.696;2022-08-03T04:51:51;21.10;99.90
17174;DHT22;8702;48.130;-1.696;2022-08-03T04:54:18;21.10;99.90
17174;DHT22;8702;48.130;-1.696;2022-08-03T04:56:45;21.20;99.90
17174;DHT22;8702;48.130;-1.696;2022-08-03T04:59:12;21.20;99.90
17174;DHT22;8702;48.130;-1.696;2022-08-03T05:01:40;21.20;99.90
17174;DHT22;8702;48.130;-1.696;2022-08-03T05:04:09;21.20;99.90
17174;DHT22;8702;48.130;-1.696;2022-08-03T05:06:36;21.20;99.90
17174;DHT22;8702;48.130;-1.696;2022-08-03T05:09:03;21.10;99.90
17174;DHT22;8702;48.130;-1.696;2022-08-03T05:11:30;21.20;99.90
17174;DHT22;8702;48.130;-1.696;2022-08-03T05:13:57;21.10;99.90
17174;DHT22;8702;48.130;-1.696;2022-08-03T05:16:24;21.10;99.90
17174;DHT22;8702;48.130;-1.696;2022-08-03T05:18:51;21.10;99.90
17174;DHT22;8702;48.130;-1.696;2022-08-03T05:21:19;21.00;99.90
17174;DHT22;8702;48.130;-1.696;2022-08-03T05:23:46;21.10;99.90
17174;DHT22;8702;48.130;-1.696;2022-08-03T05:26:13;21.10;99.90
17174;DHT22;8702;48.130;-1.696;2022-08-03T05:28:41;21.10;99.90
17174;DHT22;8702;48.130;-1.696;2022-08-03T05:31:08;21.10;99.90
17174;DHT22;8702;48.130;-1.696;2022-08-03T05:33:34;21.10;99.90
17174;DHT22;8702;48.130;-1.696;2022-08-03T05:36:02;21.00;99.90
17174;DHT22;8702;48.130;-1.696;2022-08-03T05:38:31;21.00;99.90
17174;DHT22;8702;48.130;-1.696;2022-08-03T05:40:58;21.00;99.90
17174;DHT22;8702;48.130;-1.696;2022-08-03T05:43:25;21.10;99.90
17174;DHT22;8702;48.130;-1.696;2022-08-03T05:45:51;21.20;99.90
17174;DHT22;8702;48.130;-1.696;2022-08-03T05:48:19;21.20;99.90
17174;DHT22;8702;48.130;-1.696;2022-08-03T05:50:46;21.20;99.90
17174;DHT22;8702;48.130;-1.696;2022-08-03T05:53:13;21.20;99.90
17174;DHT22;8702;48.130;-1.696;2022-08-03T05:55:41;21.20;99.90
17174;DHT22;8702;48.130;-1.696;2022-08-03T05:58:08;21.20;99.90
17174;DHT22;8702;48.130;-1.696;2022-08-03T06:00:35;21.20;99.90
17174;DHT22;8702;48.130;-1.696;2022-08-03T06:03:02;21.20;99.90
17174;DHT22;8702;48.130;-1.696;2022-08-03T06:05:30;21.20;99.90
17174;DHT22;8702;48.130;-1.696;2022-08-03T06:08:01;21.10;99.90
17174;DHT22;8702;48.130;-1.696;2022-08-03T06:10:28;21.00;99.90
17174;DHT22;8702;48.130;-1.696;2022-08-03T06:12:56;21.10;99.90
17174;DHT22;8702;48.130;-1.696;2022-08-03T06:15:23;21.20;99.90
17174;DHT22;8702;48.130;-1.696;2022-08-03T06:17:51;21.20;99.90
17174;DHT22;8702;48.130;-1.696;2022-08-03T06:20:18;21.30;99.90
17174;DHT22;8702;48.130;-1.696;2022-08-03T06:22:46;21.40;99.90
17174;DHT22;8702;48.130;-1.696;2022-08-03T06:25:13;21.40;99.90
17174;DHT22;8702;48.130;-1.696;2022-08-03T06:27:41;21.30;99.90
17174;DHT22;8702;48.130;-1.696;2022-08-03T06:30:11;21.40;99.90
17174;DHT22;8702;48.130;-1.696;2022-08-03T06:32:39;21.40;99.90
17174;DHT22;8702;48.130;-1.696;2022-08-03T06:35:07;21.50;99.90
17174;DHT22;8702;48.130;-1.696;2022-08-03T06:37:41;21.60;99.90
17174;DHT22;8702;48.130;-1.696;2022-08-03T06:40:10;21.70;99.90
17174;DHT22;8702;48.130;-1.696;2022-08-03T06:42:38;21.70;99.90
17174;DHT22;8702;48.130;-1.696;2022-08-03T06:45:06;21.60;99.90
17174;DHT22;8702;48.130;-1.696;2022-08-03T06:47:35;21.60;99.90
17174;DHT22;8702;48.130;-1.696;2022-08-03T06:50:02;21.60;99.90
17174;DHT22;8702;48.130;-1.696;2022-08-03T06:52:29;21.60;99.90
17174;DHT22;8702;48.130;-1.696;2022-08-03T06:54:56;21.50;99.90
17174;DHT22;8702;48.130;-1.696;2022-08-03T06:57:23;21.50;99.90
17174;DHT22;8702;48.130;-1.696;2022-08-03T06:59:50;21.70;99.90
17174;DHT22;8702;48.130;-1.696;2022-08-03T07:02:17;21.70;99.90
17174;DHT22;8702;48.130;-1.696;2022-08-03T07:04:46;21.80;99.90
17174;DHT22;8702;48.130;-1.696;2022-08-03T07:07:13;22.00;99.90
17174;DHT22;8702;48.130;-1.696;2022-08-03T07:09:40;22.00;99.90
17174;DHT22;8702;48.130;-1.696;2022-08-03T07:12:07;22.00;99.90
17174;DHT22;8702;48.130;-1.696;2022-08-03T07:14:34;22.10;99.90
17174;DHT22;8702;48.130;-1.696;2022-08-03T07:17:01;22.10;99.90
17174;DHT22;8702;48.130;-1.696;2022-08-03T07:19:28;22.20;99.90
17174;DHT22;8702;48.130;-1.696;2022-08-03T07:21:56;22.30;99.90
17174;DHT22;8702;48.130;-1.696;2022-08-03T07:24:24;22.30;99.90
17174;DHT22;8702;48.130;-1.696;2022-08-03T07:26:50;22.40;99.90
17174;DHT22;8702;48.130;-1.696;2022-08-03T07:29:17;22.40;99.90
17174;DHT22;8702;48.130;-1.696;2022-08-03T07:31:44;22.40;99.90
17174;DHT22;8702;48.130;-1.696;2022-08-03T07:34:11;22.40;99.90
17174;DHT22;8702;48.130;-1.696;2022-08-03T07:36:38;22.50;99.90
17174;DHT22;8702;48.130;-1.696;2022-08-03T07:39:07;22.50;99.90
17174;DHT22;8702;48.130;-1.696;2022-08-03T07:41:34;22.50;99.90
17174;DHT22;8702;48.130;-1.696;2022-08-03T07:44:02;22.50;99.90
17174;DHT22;8702;48.130;-1.696;2022-08-03T07:46:29;22.50;99.90
17174;DHT22;8702;48.130;-1.696;2022-08-03T07:48:56;22.60;99.90
17174;DHT22;8702;48.130;-1.696;2022-08-03T07:51:23;22.60;99.90
17174;DHT22;8702;48.130;-1.696;2022-08-03T07:53:50;22.70;99.90
17174;DHT22;8702;48.130;-1.696;2022-08-03T07:56:18;22.70;99.90
17174;DHT22;8702;48.130;-1.696;2022-08-03T07:58:45;22.70;99.90
17174;DHT22;8702;48.130;-1.696;2022-08-03T08:01:12;22.60;99.90
17174;DHT22;8702;48.130;-1.696;2022-08-03T08:03:39;22.60;99.90
17174;DHT22;8702;48.130;-1.696;2022-08-03T08:06:07;22.60;99.90
17174;DHT22;8702;48.130;-1.696;2022-08-03T08:08:34;22.70;99.90
17174;DHT22;8702;48.130;-1.696;2022-08-03T08:11:01;22.60;99.90
17174;DHT22;8702;48.130;-1.696;2022-08-03T08:13:29;22.60;99.90
17174;DHT22;8702;48.130;-1.696;2022-08-03T08:15:56;22.60;99.90
17174;DHT22;8702;48.130;-1.696;2022-08-03T08:18:23;22.70;99.90
17174;DHT22;8702;48.130;-1.696;2022-08-03T08:20:51;22.90;99.90
17174;DHT22;8702;48.130;-1.696;2022-08-03T08:23:18;22.90;99.90
17174;DHT22;8702;48.130;-1.696;2022-08-03T08:25:48;23.00;99.90
17174;DHT22;8702;48.130;-1.696;2022-08-03T08:28:16;23.00;99.90
17174;DHT22;8702;48.130;-1.696;2022-08-03T08:30:44;23.10;99.90
17174;DHT22;8702;48.130;-1.696;2022-08-03T08:33:12;23.20;99.90
17174;DHT22;8702;48.130;-1.696;2022-08-03T08:35:39;23.20;99.90
17174;DHT22;8702;48.130;-1.696;2022-08-03T08:38:06;23.20;99.90
17174;DHT22;8702;48.130;-1.696;2022-08-03T08:40:33;23.20;99.90
17174;DHT22;8702;48.130;-1.696;2022-08-03T08:43:01;23.30;99.90
17174;DHT22;8702;48.130;-1.696;2022-08-03T08:45:28;23.40;99.90
17174;DHT22;8702;48.130;-1.696;2022-08-03T08:47:59;23.40;99.90
17174;DHT22;8702;48.130;-1.696;2022-08-03T08:50:28;23.40;99.90
17174;DHT22;8702;48.130;-1.696;2022-08-03T08:52:56;23.50;99.90
17174;DHT22;8702;48.130;-1.696;2022-08-03T08:55:26;23.50;99.90
17174;DHT22;8702;48.130;-1.696;2022-08-03T08:57:57;23.60;99.90
17174;DHT22;8702;48.130;-1.696;2022-08-03T09:00:24;23.70;99.90
17174;DHT22;8702;48.130;-1.696;2022-08-03T09:02:51;23.70;99.90
17174;DHT22;8702;48.130;-1.696;2022-08-03T09:05:20;23.80;99.90
17174;DHT22;8702;48.130;-1.696;2022-08-03T09:07:47;23.90;99.90
17174;DHT22;8702;48.130;-1.696;2022-08-03T09:10:16;24.00;99.90
17174;DHT22;8702;48.130;-1.696;2022-08-03T09:12:48;23.90;99.90
17174;DHT22;8702;48.130;-1.696;2022-08-03T09:15:20;23.90;99.90
17174;DHT22;8702;48.130;-1.696;2022-08-03T09:17:47;24.00;99.90
17174;DHT22;8702;48.130;-1.696;2022-08-03T09:20:15;24.00;99.90
17174;DHT22;8702;48.130;-1.696;2022-08-03T09:22:56;24.10;99.90
17174;DHT22;8702;48.130;-1.696;2022-08-03T09:25:32;24.20;99.90
17174;DHT22;8702;48.130;-1.696;2022-08-03T09:28:04;24.20;99.90
17174;DHT22;8702;48.130;-1.696;2022-08-03T09:30:32;24.20;99.90
17174;DHT22;8702;48.130;-1.696;2022-08-03T09:33:00;24.20;99.90
17174;DHT22;8702;48.130;-1.696;2022-08-03T09:35:27;24.30;99.90
17174;DHT22;8702;48.130;-1.696;2022-08-03T09:38:10;24.30;99.90
17174;DHT22;8702;48.130;-1.696;2022-08-03T09:40:38;24.50;99.90
17174;DHT22;8702;48.130;-1.696;2022-08-03T09:43:05;24.50;99.90
17174;DHT22;8702;48.130;-1.696;2022-08-03T09:45:33;24.60;99.90
17174;DHT22;8702;48.130;-1.696;2022-08-03T09:48:22;24.60;99.90
17174;DHT22;8702;48.130;-1.696;2022-08-03T09:50:49;24.70;99.90
17174;DHT22;8702;48.130;-1.696;2022-08-03T09:53:18;24.70;99.90
17174;DHT22;8702;48.130;-1.696;2022-08-03T09:55:53;24.70;99.90
17174;DHT22;8702;48.130;-1.696;2022-08-03T09:58:21;24.90;99.90
17174;DHT22;8702;48.130;-1.696;2022-08-03T10:00:53;24.90;99.90
17174;DHT22;8702;48.130;-1.696;2022-08-03T10:03:21;24.90;99.90
17174;DHT22;8702;48.130;-1.696;2022-08-03T10:05:48;24.90;99.90
17174;DHT22;8702;48.130;-1.696;2022-08-03T10:08:17;24.90;99.90
17174;DHT22;8702;48.130;-1.696;2022-08-03T10:10:46;24.80;99.90
17174;DHT22;8702;48.130;-1.696;2022-08-03T10:13:16;24.90;99.90
17174;DHT22;8702;48.130;-1.696;2022-08-03T10:15:44;24.90;99.90
17174;DHT22;8702;48.130;-1.696;2022-08-03T10:18:11;24.80;99.90
17174;DHT22;8702;48.130;-1.696;2022-08-03T10:20:43;24.90;99.90
17174;DHT22;8702;48.130;-1.696;2022-08-03T10:23:11;24.90;99.90
17174;DHT22;8702;48.130;-1.696;2022-08-03T10:25:40;25.00;99.90
17174;DHT22;8702;48.130;-1.696;2022-08-03T10:28:14;25.10;99.90
17174;DHT22;8702;48.130;-1.696;2022-08-03T10:30:46;25.20;99.90
17174;DHT22;8702;48.130;-1.696;2022-08-03T10:33:17;25.30;99.90
17174;DHT22;8702;48.130;-1.696;2022-08-03T10:35:46;25.30;99.90
17174;DHT22;8702;48.130;-1.696;2022-08-03T10:38:19;25.20;99.90
17174;DHT22;8702;48.130;-1.696;2022-08-03T10:40:48;25.20;99.90
17174;DHT22;8702;48.130;-1.696;2022-08-03T10:43:20;25.30;99.90
17174;DHT22;8702;48.130;-1.696;2022-08-03T10:45:48;25.30;99.90
17174;DHT22;8702;48.130;-1.696;2022-08-03T10:48:17;25.30;99.90
17174;DHT22;8702;48.130;-1.696;2022-08-03T10:50:45;25.30;99.90
17174;DHT22;8702;48.130;-1.696;2022-08-03T10:53:12;25.40;99.90
17174;DHT22;8702;48.130;-1.696;2022-08-03T10:55:40;25.50;99.90
17174;DHT22;8702;48.130;-1.696;2022-08-03T10:58:48;25.60;99.90
17174;DHT22;8702;48.130;-1.696;2022-08-03T11:01:17;25.50;99.90
17174;DHT22;8702;48.130;-1.696;2022-08-03T11:04:15;25.60;99.90
17174;DHT22;8702;48.130;-1.696;2022-08-03T11:06:44;25.60;99.90
17174;DHT22;8702;48.130;-1.696;2022-08-03T11:09:18;25.60;99.90
17174;DHT22;8702;48.130;-1.696;2022-08-03T11:11:46;25.70;99.90
17174;DHT22;8702;48.130;-1.696;2022-08-03T11:14:17;25.70;99.90
17174;DHT22;8702;48.130;-1.696;2022-08-03T11:16:46;25.70;99.90
17174;DHT22;8702;48.130;-1.696;2022-08-03T11:19:15;25.80;99.90
17174;DHT22;8702;48.130;-1.696;2022-08-03T11:21:54;25.80;99.90
17174;DHT22;8702;48.130;-1.696;2022-08-03T11:24:56;25.80;99.90
17174;DHT22;8702;48.130;-1.696;2022-08-03T11:27:24;25.90;99.90
17174;DHT22;8702;48.130;-1.696;2022-08-03T11:29:57;25.90;99.90
17174;DHT22;8702;48.130;-1.696;2022-08-03T11:32:52;26.00;99.90
17174;DHT22;8702;48.130;-1.696;2022-08-03T11:35:22;26.10;99.90
17174;DHT22;8702;48.130;-1.696;2022-08-03T11:38:02;26.20;99.80
17174;DHT22;8702;48.130;-1.696;2022-08-03T11:40:37;26.20;99.90
17174;DHT22;8702;48.130;-1.696;2022-08-03T11:43:06;26.20;99.90
17174;DHT22;8702;48.130;-1.696;2022-08-03T11:45:35;26.20;99.90
17174;DHT22;8702;48.130;-1.696;2022-08-03T11:48:15;26.30;99.80
17174;DHT22;8702;48.130;-1.696;2022-08-03T11:50:42;26.40;99.50
17174;DHT22;8702;48.130;-1.696;2022-08-03T11:53:14;26.40;99.60
17174;DHT22;8702;48.130;-1.696;2022-08-03T11:55:42;26.50;99.90
17174;DHT22;8702;48.130;-1.696;2022-08-03T11:58:20;26.50;98.90
17174;DHT22;8702;48.130;-1.696;2022-08-03T12:00:49;26.60;99.10
17174;DHT22;8702;48.130;-1.696;2022-08-03T12:03:18;26.60;99.00
17174;DHT22;8702;48.130;-1.696;2022-08-03T12:05:47;26.70;99.10
17174;DHT22;8702;48.130;-1.696;2022-08-03T12:08:16;26.70;98.90
17174;DHT22;8702;48.130;-1.696;2022-08-03T12:10:48;26.70;98.80
17174;DHT22;8702;48.130;-1.696;2022-08-03T12:13:16;26.70;98.20
17174;DHT22;8702;48.130;-1.696;2022-08-03T12:15:51;26.80;98.20
17174;DHT22;8702;48.130;-1.696;2022-08-03T12:18:19;26.80;98.30
17174;DHT22;8702;48.130;-1.696;2022-08-03T12:20:48;26.90;98.40
17174;DHT22;8702;48.130;-1.696;2022-08-03T12:23:15;27.00;98.40
17174;DHT22;8702;48.130;-1.696;2022-08-03T12:25:44;27.00;97.90
17174;DHT22;8702;48.130;-1.696;2022-08-03T12:28:14;27.00;97.90
17174;DHT22;8702;48.130;-1.696;2022-08-03T12:30:46;27.10;97.90
17174;DHT22;8702;48.130;-1.696;2022-08-03T12:33:25;27.10;98.00
17174;DHT22;8702;48.130;-1.696;2022-08-03T12:36:03;27.20;97.90
17174;DHT22;8702;48.130;-1.696;2022-08-03T12:38:31;27.20;97.50
17174;DHT22;8702;48.130;-1.696;2022-08-03T12:41:00;27.30;97.50
17174;DHT22;8702;48.130;-1.696;2022-08-03T12:43:28;27.30;97.40
17174;DHT22;8702;48.130;-1.696;2022-08-03T12:46:12;27.40;97.20
17174;DHT22;8702;48.130;-1.696;2022-08-03T12:49:14;27.40;97.30
17174;DHT22;8702;48.130;-1.696;2022-08-03T12:51:57;27.40;96.50
17174;DHT22;8702;48.130;-1.696;2022-08-03T12:54:26;27.50;96.20
17174;DHT22;8702;48.130;-1.696;2022-08-03T12:56:58;27.40;96.40
17174;DHT22;8702;48.130;-1.696;2022-08-03T12:59:28;27.50;96.70
17174;DHT22;8702;48.130;-1.696;2022-08-03T13:01:56;27.60;96.70
17174;DHT22;8702;48.130;-1.696;2022-08-03T13:04:29;27.60;95.80
17174;DHT22;8702;48.130;-1.696;2022-08-03T13:06:57;27.60;95.30
17174;DHT22;8702;48.130;-1.696;2022-08-03T13:09:25;27.80;96.30
17174;DHT22;8702;48.130;-1.696;2022-08-03T13:12:05;27.90;95.80
17174;DHT22;8702;48.130;-1.696;2022-08-03T13:14:33;27.90;95.00
17174;DHT22;8702;48.130;-1.696;2022-08-03T13:17:00;27.90;95.60
17174;DHT22;8702;48.130;-1.696;2022-08-03T13:19:28;28.10;95.60
17174;DHT22;8702;48.130;-1.696;2022-08-03T13:21:55;28.00;94.30
17174;DHT22;8702;48.130;-1.696;2022-08-03T13:24:23;28.00;94.50
17174;DHT22;8702;48.130;-1.696;2022-08-03T13:26:50;28.10;94.30
17174;DHT22;8702;48.130;-1.696;2022-08-03T13:29:17;28.10;94.20
17174;DHT22;8702;48.130;-1.696;2022-08-03T13:31:44;27.90;93.60
17174;DHT22;8702;48.130;-1.696;2022-08-03T13:34:11;28.20;94.30
17174;DHT22;8702;48.130;-1.696;2022-08-03T13:36:39;28.30;93.70
17174;DHT22;8702;48.130;-1.696;2022-08-03T13:39:06;28.40;93.80
17174;DHT22;8702;48.130;-1.696;2022-08-03T13:41:33;28.50;93.60
17174;DHT22;8702;48.130;-1.696;2022-08-03T13:44:00;28.50;93.10
17174;DHT22;8702;48.130;-1.696;2022-08-03T13:46:27;28.60;93.20
17174;DHT22;8702;48.130;-1.696;2022-08-03T13:48:54;28.60;93.30
17174;DHT22;8702;48.130;-1.696;2022-08-03T13:51:21;28.80;93.30
17174;DHT22;8702;48.130;-1.696;2022-08-03T13:53:49;28.80;92.70
17174;DHT22;8702;48.130;-1.696;2022-08-03T13:56:16;28.80;92.90
17174;DHT22;8702;48.130;-1.696;2022-08-03T13:58:43;28.80;92.80
17174;DHT22;8702;48.130;-1.696;2022-08-03T14:01:10;29.00;93.20
17174;DHT22;8702;48.130;-1.696;2022-08-03T14:03:38;29.10;92.50
17174;DHT22;8702;48.130;-1.696;2022-08-03T14:06:05;29.10;92.60
17174;DHT22;8702;48.130;-1.696;2022-08-03T14:08:32;29.20;92.70
17174;DHT22;8702;48.130;-1.696;2022-08-03T14:11:00;29.30;92.70
17174;DHT22;8702;48.130;-1.696;2022-08-03T14:13:27;29.30;92.60
17174;DHT22;8702;48.130;-1.696;2022-08-03T14:15:54;29.40;92.70
17174;DHT22;8702;48.130;-1.696;2022-08-03T14:18:21;29.50;91.00
17174;DHT22;8702;48.130;-1.696;2022-08-03T14:20:48;29.50;91.80
17174;DHT22;8702;48.130;-1.696;2022-08-03T14:23:16;29.60;91.40
17174;DHT22;8702;48.130;-1.696;2022-08-03T14:25:43;29.60;91.00
17174;DHT22;8702;48.130;-1.696;2022-08-03T14:28:11;29.70;91.20
17174;DHT22;8702;48.130;-1.696;2022-08-03T14:30:38;29.70;91.10
17174;DHT22;8702;48.130;-1.696;2022-08-03T14:33:05;29.80;91.10
17174;DHT22;8702;48.130;-1.696;2022-08-03T14:35:32;29.90;91.10
17174;DHT22;8702;48.130;-1.696;2022-08-03T14:37:59;30.00;90.80
17174;DHT22;8702;48.130;-1.696;2022-08-03T14:40:26;30.10;90.50
17174;DHT22;8702;48.130;-1.696;2022-08-03T14:42:53;30.20;90.40
17174;DHT22;8702;48.130;-1.696;2022-08-03T14:45:22;30.40;89.40
17174;DHT22;8702;48.130;-1.696;2022-08-03T14:47:49;30.40;89.30
17174;DHT22;8702;48.130;-1.696;2022-08-03T14:50:16;30.40;89.30
17174;DHT22;8702;48.130;-1.696;2022-08-03T14:52:43;30.40;89.40
17174;DHT22;8702;48.130;-1.696;2022-08-03T14:55:10;30.40;88.20
17174;DHT22;8702;48.130;-1.696;2022-08-03T14:57:37;30.50;89.70
17174;DHT22;8702;48.130;-1.696;2022-08-03T15:00:06;30.60;89.50
17174;DHT22;8702;48.130;-1.696;2022-08-03T15:02:34;30.80;89.50
17174;DHT22;8702;48.130;-1.696;2022-08-03T15:05:01;30.80;88.80
17174;DHT22;8702;48.130;-1.696;2022-08-03T15:07:28;30.90;88.90
17174;DHT22;8702;48.130;-1.696;2022-08-03T15:09:55;30.90;89.50
17174;DHT22;8702;48.130;-1.696;2022-08-03T15:12:24;31.00;88.10
17174;DHT22;8702;48.130;-1.696;2022-08-03T15:14:51;31.20;88.60
17174;DHT22;8702;48.130;-1.696;2022-08-03T15:17:18;31.40;89.20
17174;DHT22;8702;48.130;-1.696;2022-08-03T15:19:46;31.60;88.50
17174;DHT22;8702;48.130;-1.696;2022-08-03T15:22:13;31.70;88.50
17174;DHT22;8702;48.130;-1.696;2022-08-03T15:24:41;31.80;88.10
17174;DHT22;8702;48.130;-1.696;2022-08-03T15:27:08;31.80;87.60
17174;DHT22;8702;48.130;-1.696;2022-08-03T15:29:35;31.90;87.30
17174;DHT22;8702;48.130;-1.696;2022-08-03T15:32:03;31.90;87.00
17174;DHT22;8702;48.130;-1.696;2022-08-03T15:34:30;32.00;87.10
17174;DHT22;8702;48.130;-1.696;2022-08-03T15:36:58;32.00;86.30
17174;DHT22;8702;48.130;-1.696;2022-08-03T15:39:25;32.10;86.90
17174;DHT22;8702;48.130;-1.696;2022-08-03T15:41:52;32.10;87.00
17174;DHT22;8702;48.130;-1.696;2022-08-03T15:44:19;32.10;87.20
17174;DHT22;8702;48.130;-1.696;2022-08-03T15:46:46;32.20;86.80